KBPI/BPI METAR and TAF weather

Enter ICAO airport designator
Station Type Date Time Source
KBPI METAR 2021/04/18 02:53 UTC NOAA

KBPI 180253Z AUTO 33006KT 10SM BKN090 02/M07 A3023 RMK AO2 SLP241 T00171067 53007


Station Type Date Time Source
KBPI Decoded METAR 2021/04/18 02:53 UTC NOAA

BIG PINEY-MARBLETON AIRPORT, WY, United States (KBPI) 42-35N 110-06W 2117M
Apr 17, 2021 - 10:53 PM EDT / 2021.04.18 0253 UTC
Wind: from the NNW (330 degrees) at 7 MPH (6 KT):0
Visibility: 10 mile(s):0
Sky conditions: mostly cloudy
Temperature: 35.1 F (1.7 C)
Dew Point: 19.9 F (-6.7 C)
Relative Humidity: 53%
Pressure (altimeter): 30.23 in. Hg (1023 hPa)
Pressure tendency: 0.02 inches (0.7 hPa) higher than three hours ago
ob: KBPI 180253Z AUTO 33006KT 10SM BKN090 02/M07 A3023 RMK AO2 SLP241 T00171067 53007
cycle: 3

Station Type Date Time Source
KBPI TAF 2021/04/17 18:30 UTC NOAA

TAF KBPI 171728Z 1718/1818 VRB04KT P6SM SKC
FM172100 32007KT P6SM SCT180
FM180900 VRB04KT P6SM SCT060

Example: see airport list